Terminal Aerodrome Forecast
Issued by NWS

Home | Current Version | Previous Version | Text Only | Print | Product List | Glossary On
Versions: 1 2 3 4 5 6 7 8 9 10 11 12 13 14 15 16 17 18 19 20 21 22 23 24 25 26 27 28 29 30 31 32 33
000
FTUS41 KBOX 022321
TAFACK
TAF
KACK 022321Z 0300/0324 01014G22KT P6SM OVC012
     FM030100 01014KT 3SM BR OVC015
     FM030300 02014KT 6SM BR OVC025
     FM030600 02013KT P6SM OVC025
     FM030900 02014KT P6SM BKN040
     FM031300 03014KT P6SM BKN150=

USA.gov is the U.S. government's official web portal to all federal, state and local government web resources and services.